createdAt,value
2019-02-18T00:01:42.421Z,97059.18
2019-02-18T00:04:11.964Z,97059.41
2019-02-18T00:06:41.056Z,97062.74
2019-02-18T00:09:12.107Z,97061.78
2019-02-18T00:11:43.059Z,97056.41
2019-02-18T00:14:16.012Z,97061.50
2019-02-18T00:16:48.249Z,97055.39
2019-02-18T00:19:20.190Z,97053.48
2019-02-18T00:21:50.104Z,97053.70
2019-02-18T00:24:19.220Z,97050.66
2019-02-18T00:26:51.172Z,97053.92
2019-02-18T00:29:20.676Z,97051.22
2019-02-18T00:31:52.293Z,97049.27
2019-02-18T00:34:23.374Z,97053.98
2019-02-18T00:36:52.601Z,97052.98
2019-02-18T00:39:22.835Z,97051.09
2019-02-18T00:41:52.348Z,97050.75
2019-02-18T00:44:24.691Z,97055.83
2019-02-18T00:46:53.776Z,97053.39
2019-02-18T00:49:22.891Z,97056.30
2019-02-18T00:51:53.339Z,97058.69
2019-02-18T00:54:24.176Z,97054.23
2019-02-18T00:56:59.674Z,97057.74
2019-02-18T00:59:29.328Z,97056.75
2019-02-18T01:01:58.460Z,97054.31
2019-02-18T01:04:30.081Z,97056.75
2019-02-18T01:06:59.467Z,97053.33
2019-02-18T01:09:28.605Z,97057.09
2019-02-18T01:11:57.745Z,97055.45
2019-02-18T01:14:32.118Z,97056.30
2019-02-18T01:17:01.341Z,97058.46
2019-02-18T01:19:30.551Z,97064.25
2019-02-18T01:22:03.367Z,97067.84
2019-02-18T01:24:32.531Z,97063.58
2019-02-18T01:27:01.632Z,97062.73
2019-02-18T01:29:32.094Z,97063.84
2019-02-18T01:32:01.226Z,97066.36
2019-02-18T01:34:30.422Z,97056.03
2019-02-18T01:37:02.449Z,97055.98
2019-02-18T01:39:31.598Z,97058.28
2019-02-18T01:42:00.722Z,97057.40
2019-02-18T01:44:30.022Z,97052.66
2019-02-18T01:46:59.115Z,97052.95
2019-02-18T01:49:28.215Z,97048.27
2019-02-18T01:51:57.309Z,97051.32
2019-02-18T01:54:29.740Z,97048.39
2019-02-18T01:57:01.650Z,97042.73
2019-02-18T01:59:32.659Z,97039.36
2019-02-18T02:02:06.716Z,97038.71
2019-02-18T02:04:35.783Z,97033.95
2019-02-18T02:07:06.102Z,97032.80
2019-02-18T02:09:40.213Z,97026.23
2019-02-18T02:12:14.654Z,97028.41
2019-02-18T02:14:43.796Z,97031.78
2019-02-18T02:17:14.097Z,97031.73
2019-02-18T02:19:43.215Z,97032.58
2019-02-18T02:22:13.403Z,97030.97
2019-02-18T02:24:42.521Z,97026.38
2019-02-18T02:27:14.096Z,97028.48
2019-02-18T02:29:43.220Z,97028.78
2019-02-18T02:32:12.703Z,97028.08
2019-02-18T02:34:44.274Z,97026.67
2019-02-18T02:37:13.393Z,97027.17
2019-02-18T02:39:42.475Z,97017.44
2019-02-18T02:42:11.700Z,97014.42
2019-02-18T02:44:40.789Z,97019.46
2019-02-18T02:47:13.695Z,97015.13
2019-02-18T02:49:43.256Z,97019.27
2019-02-18T02:52:15.476Z,97023.16
2019-02-18T02:54:48.821Z,97021.55
2019-02-18T02:57:18.014Z,97021.91
2019-02-18T02:59:47.235Z,97017.14
2019-02-18T03:02:20.583Z,97010.89
2019-02-18T03:04:52.903Z,97006.44
2019-02-18T03:07:22.086Z,97007.98
2019-02-18T03:09:53.002Z,95609.95
2019-02-18T03:12:26.068Z,97012.25
2019-02-18T03:14:58.765Z,97005.91
2019-02-18T03:17:28.057Z,97005.66
2019-02-18T03:19:57.338Z,97009.39
2019-02-18T03:22:26.938Z,97005.77
2019-02-18T03:25:37.006Z,97001.17
2019-02-18T03:28:23.512Z,97001.68
2019-02-18T03:31:02.671Z,97005.39
2019-02-18T03:33:48.166Z,97001.33
2019-02-18T03:36:17.287Z,97005.94
2019-02-18T03:38:47.340Z,97002.22
2019-02-18T03:41:18.938Z,97005.16
2019-02-18T03:43:49.118Z,96997.52
2019-02-18T03:46:18.219Z,96995.09
2019-02-18T03:48:47.408Z,96997.25
2019-02-18T03:51:19.875Z,96997.75
2019-02-18T03:53:52.849Z,96998.14
2019-02-18T03:56:26.182Z,96999.52
2019-02-18T03:58:55.396Z,96998.81
2019-02-18T04:01:24.627Z,96999.74
2019-02-18T04:03:53.815Z,97004.87
2019-02-18T04:06:23.003Z,97010.70
2019-02-18T04:08:52.151Z,97004.55
2019-02-18T04:11:21.297Z,97012.05
2019-02-18T04:13:50.635Z,97011.34
2019-02-18T04:16:22.709Z,97010.77
2019-02-18T04:18:57.862Z,97014.34
2019-02-18T04:21:27.011Z,97010.78
2019-02-18T04:23:56.606Z,97015.55
2019-02-18T04:26:26.117Z,97066.27
2019-02-18T04:28:57.611Z,97021.19
2019-02-18T04:31:34.143Z,97017.83
2019-02-18T04:34:06.131Z,97012.95
2019-02-18T04:36:35.288Z,97010.76
2019-02-18T04:39:25.107Z,97014.80
2019-02-18T04:41:57.181Z,97015.28
2019-02-18T04:44:32.739Z,97009.62
2019-02-18T04:47:01.839Z,97010.62
2019-02-18T04:49:32.632Z,97006.44
2019-02-18T04:52:01.724Z,97006.45
2019-02-18T04:54:30.953Z,97012.19
2019-02-18T04:57:00.503Z,97008.73
2019-02-18T04:59:34.259Z,97006.20
2019-02-18T05:02:03.463Z,97003.91
2019-02-18T05:04:36.239Z,97012.97
2019-02-18T05:07:08.311Z,97010.84
2019-02-18T05:09:39.943Z,97002.86
2019-02-18T05:12:12.966Z,97005.63
2019-02-18T05:14:44.190Z,96997.13
2019-02-18T05:17:13.372Z,97001.21
2019-02-18T05:19:42.609Z,96999.67
2019-02-18T05:22:12.925Z,96997.59
2019-02-18T05:24:46.778Z,97002.64
2019-02-18T05:27:17.417Z,97001.25
2019-02-18T05:29:49.717Z,97000.19
2019-02-18T05:32:21.167Z,96993.49
2019-02-18T05:34:52.084Z,96992.58
2019-02-18T05:37:22.841Z,96995.23
2019-02-18T05:39:52.432Z,96985.35
2019-02-18T05:42:27.647Z,96986.84
2019-02-18T05:44:57.455Z,96989.50
2019-02-18T05:47:26.575Z,96990.04
2019-02-18T05:50:05.561Z,96985.45
2019-02-18T05:52:36.187Z,96983.66
2019-02-18T05:55:07.996Z,96987.33
2019-02-18T05:57:37.231Z,96980.08
2019-02-18T06:00:10.731Z,96981.48
2019-02-18T06:02:41.971Z,96985.01
2019-02-18T06:05:16.143Z,96989.03
2019-02-18T06:07:45.795Z,96984.80
2019-02-18T06:10:17.148Z,96987.45
2019-02-18T06:12:47.545Z,96982.10
2019-02-18T06:15:16.868Z,96983.50
2019-02-18T06:17:52.592Z,96981.27
2019-02-18T06:20:21.905Z,96983.90
2019-02-18T06:22:51.029Z,96983.50
2019-02-18T06:25:24.022Z,96987.27
2019-02-18T06:27:54.934Z,96996.65
2019-02-18T06:30:27.004Z,96994.30
2019-02-18T06:33:06.263Z,96985.12
2019-02-18T06:35:37.543Z,96992.91
2019-02-18T06:38:06.690Z,96992.70
2019-02-18T06:40:37.954Z,96996.72
2019-02-18T06:43:07.303Z,96995.11
2019-02-18T06:45:51.380Z,96996.20
2019-02-18T06:48:30.637Z,96993.05
2019-02-18T06:51:00.012Z,97003.41
2019-02-18T06:53:29.261Z,97007.62
2019-02-18T06:56:01.386Z,97006.00
2019-02-18T06:58:51.821Z,97007.98
2019-02-18T07:01:45.089Z,97011.52
2019-02-18T07:04:20.204Z,97012.27
2019-02-18T07:06:59.884Z,97011.66
2019-02-18T07:09:51.259Z,97013.31
2019-02-18T07:12:30.772Z,97012.48
2019-02-18T07:15:05.597Z,97005.41
2019-02-18T07:17:36.528Z,97010.01
2019-02-18T07:20:06.531Z,96998.22
2019-02-18T07:22:36.960Z,97004.02
2019-02-18T07:25:09.295Z,97007.38
2019-02-18T07:27:38.741Z,97007.60
2019-02-18T07:30:10.689Z,97004.92
2019-02-18T07:32:45.049Z,97001.39
2019-02-18T07:35:16.848Z,97003.73
2019-02-18T07:37:45.956Z,97000.64
2019-02-18T07:40:15.869Z,97009.08
2019-02-18T07:42:45.220Z,97003.33
2019-02-18T07:45:14.517Z,97010.72
2019-02-18T07:47:46.563Z,97008.50
2019-02-18T07:50:20.628Z,97003.69
2019-02-18T07:52:49.418Z,97004.75
2019-02-18T07:55:21.915Z,96998.78
2019-02-18T07:57:51.879Z,97003.66
2019-02-18T08:00:21.009Z,97006.55
2019-02-18T08:02:51.803Z,97000.64
2019-02-18T08:05:21.348Z,96998.54
2019-02-18T08:07:50.783Z,96993.53
2019-02-18T08:10:20.064Z,96995.84
2019-02-18T08:12:50.539Z,96995.73
2019-02-18T08:15:24.912Z,96995.55
2019-02-18T08:17:54.409Z,96997.52
2019-02-18T08:20:25.367Z,97003.06
2019-02-18T08:22:55.969Z,97000.92
2019-02-18T08:25:25.581Z,96996.75
2019-02-18T08:27:56.989Z,96997.94
2019-02-18T08:30:29.847Z,96991.02
2019-02-18T08:33:08.260Z,96994.59
2019-02-18T08:35:40.184Z,97000.14
2019-02-18T08:38:25.890Z,96998.39
2019-02-18T08:40:55.046Z,96989.92
2019-02-18T08:43:25.914Z,97000.48
2019-02-18T08:45:56.986Z,96998.04
2019-02-18T08:48:28.510Z,96988.34
2019-02-18T08:51:13.835Z,97024.53
2019-02-18T08:53:44.310Z,96984.25
2019-02-18T08:56:13.482Z,96987.89
2019-02-18T08:58:42.770Z,96980.41
2019-02-18T09:01:20.529Z,96989.52
2019-02-18T09:03:51.343Z,96987.64
2019-02-18T09:06:23.283Z,96988.59
2019-02-18T09:08:52.792Z,96984.34
2019-02-18T09:11:25.264Z,96986.26
2019-02-18T09:13:54.389Z,96981.34
2019-02-18T09:16:25.894Z,96981.13
2019-02-18T09:18:57.368Z,96987.36
2019-02-18T09:21:28.250Z,96983.36
2019-02-18T09:24:05.620Z,96979.11
2019-02-18T09:26:35.606Z,96975.97
2019-02-18T09:29:06.134Z,96974.62
2019-02-18T09:31:36.115Z,96974.52
2019-02-18T09:34:17.794Z,96974.47
2019-02-18T09:36:47.028Z,96977.62
2019-02-18T09:39:30.682Z,96971.48
2019-02-18T09:41:52.380Z,96962.54
2019-02-18T09:44:21.668Z,96960.73
2019-02-18T09:46:54.494Z,96968.95
2019-02-18T09:49:24.775Z,96968.44
2019-02-18T09:51:56.361Z,96965.60
2019-02-18T09:54:25.658Z,96961.53
2019-02-18T09:56:56.929Z,96961.11
2019-02-18T09:59:28.567Z,96965.17
2019-02-18T10:01:57.799Z,96959.98
2019-02-18T10:04:37.228Z,96957.11
2019-02-18T10:07:10.786Z,96961.73
2019-02-18T10:09:39.879Z,96954.53
2019-02-18T10:12:18.067Z,96953.22
2019-02-18T10:14:44.781Z,96949.02
2019-02-18T10:17:14.001Z,96951.64
2019-02-18T10:19:44.126Z,96952.22
2019-02-18T10:22:13.346Z,96946.90
2019-02-18T10:27:17.430Z,96946.28
2019-02-18T10:29:46.673Z,96945.97
2019-02-18T10:32:16.462Z,96942.63
2019-02-18T10:34:50.072Z,96940.14
2019-02-18T10:37:21.236Z,96937.05
2019-02-18T10:40:03.885Z,96925.00
2019-02-18T10:42:36.853Z,96935.03
2019-02-18T10:45:08.675Z,96930.68
2019-02-18T10:47:38.628Z,96930.84
2019-02-18T10:50:12.642Z,96922.53
2019-02-18T10:52:42.096Z,96917.33
2019-02-18T10:55:11.694Z,96917.82
2019-02-18T10:57:43.575Z,96917.12
2019-02-18T11:00:14.988Z,96906.80
2019-02-18T11:02:54.389Z,96905.42
2019-02-18T11:05:23.693Z,96900.84
2019-02-18T11:07:58.955Z,96897.27
2019-02-18T11:10:29.893Z,96894.64
2019-02-18T11:13:00.159Z,96892.35
2019-02-18T11:15:30.434Z,96888.01
2019-02-18T11:18:02.549Z,96881.05
2019-02-18T11:20:33.189Z,96876.58
2019-02-18T11:23:02.863Z,96871.66
2019-02-18T11:25:33.002Z,96863.73
2019-02-18T11:28:02.319Z,96862.48
2019-02-18T11:30:33.264Z,96857.09
2019-02-18T11:33:02.397Z,96860.09
2019-02-18T11:35:34.083Z,96854.80
2019-02-18T11:38:04.422Z,96849.89
2019-02-18T11:40:37.435Z,96841.67
2019-02-18T11:43:07.785Z,96840.38
2019-02-18T11:45:46.131Z,96836.28
2019-02-18T11:48:15.430Z,96834.74
2019-02-18T11:50:45.951Z,96831.47
2019-02-18T11:53:19.482Z,96829.81
2019-02-18T11:55:49.054Z,96821.28
2019-02-18T11:58:21.828Z,96817.05
2019-02-18T12:00:54.231Z,96824.47
2019-02-18T12:03:23.715Z,96820.64
2019-02-18T12:05:54.052Z,96821.19
2019-02-18T12:08:27.212Z,96819.28
2019-02-18T12:10:56.360Z,96814.88
2019-02-18T12:13:30.068Z,96809.44
2019-02-18T12:16:01.240Z,96808.36
2019-02-18T12:18:30.578Z,96806.47
2019-02-18T12:21:01.427Z,96800.31
2019-02-18T12:23:36.190Z,96824.16
2019-02-18T12:26:05.357Z,96798.76
2019-02-18T12:28:34.496Z,96814.80
2019-02-18T12:31:04.602Z,96791.73
2019-02-18T12:33:33.916Z,96788.36
2019-02-18T12:36:06.089Z,96785.17
2019-02-18T12:38:38.586Z,96780.20
2019-02-18T12:41:08.049Z,96780.51
2019-02-18T12:43:37.176Z,96775.50
2019-02-18T12:46:15.692Z,96771.63
2019-02-18T12:48:43.181Z,96768.42
2019-02-18T12:51:15.911Z,96769.09
2019-02-18T12:53:51.211Z,96759.67
2019-02-18T12:56:20.795Z,96761.78
2019-02-18T12:58:54.641Z,96747.34
2019-02-18T13:01:21.401Z,96747.16
2019-02-18T13:03:50.889Z,96748.80
2019-02-18T13:06:23.112Z,96744.84
2019-02-18T13:08:52.421Z,96741.55
2019-02-18T13:11:21.510Z,96735.48
2019-02-18T13:13:52.550Z,96733.70
2019-02-18T13:16:25.125Z,96735.64
2019-02-18T13:18:54.383Z,96731.83
2019-02-18T13:21:23.697Z,96726.42
2019-02-18T13:23:53.693Z,96730.19
2019-02-18T13:26:23.339Z,96723.11
2019-02-18T13:28:54.270Z,96723.54
2019-02-18T13:31:24.464Z,96714.11
2019-02-18T13:33:55.283Z,96719.21
2019-02-18T13:36:30.077Z,96714.41
2019-02-18T13:39:00.904Z,96716.39
2019-02-18T13:41:33.214Z,96713.80
2019-02-18T13:44:02.335Z,96710.45
2019-02-18T13:46:31.784Z,96704.48
2019-02-18T13:49:02.896Z,96695.06
2019-02-18T13:51:34.489Z,96699.38
2019-02-18T13:54:03.816Z,96692.78
2019-02-18T13:56:38.690Z,96691.45
2019-02-18T13:59:08.492Z,96692.50
2019-02-18T14:01:38.042Z,96689.52
2019-02-18T14:04:09.715Z,96689.19
2019-02-18T14:06:40.738Z,96689.98
2019-02-18T14:09:10.396Z,96838.75
2019-02-18T14:11:42.173Z,96676.52
2019-02-18T14:14:15.472Z,96681.16
2019-02-18T14:16:49.277Z,96684.34
2019-02-18T14:19:36.971Z,96687.08
2019-02-18T14:22:24.344Z,96455.05
2019-02-18T14:24:53.449Z,96679.34
2019-02-18T14:27:24.841Z,96674.58
2019-02-18T14:29:54.419Z,96673.88
2019-02-18T14:32:25.897Z,96671.58
2019-02-18T14:34:55.046Z,96670.37
2019-02-18T14:37:25.933Z,96673.77
2019-02-18T14:39:55.158Z,96673.31
2019-02-18T14:42:25.777Z,96666.34
2019-02-18T14:44:55.196Z,96669.19
2019-02-18T14:47:25.337Z,96653.84
2019-02-18T14:49:55.314Z,96652.78
2019-02-18T14:52:25.041Z,96653.38
2019-02-18T14:54:55.293Z,96649.98
2019-02-18T14:57:25.580Z,96648.98
2019-02-18T15:00:02.531Z,96652.69
2019-02-18T15:02:33.601Z,96651.66
2019-02-18T15:05:03.712Z,96641.84
2019-02-18T15:07:37.287Z,96646.46
2019-02-18T15:10:07.386Z,96643.24
2019-02-18T15:12:36.791Z,95343.95
2019-02-18T15:15:09.391Z,96634.54
2019-02-18T15:17:39.431Z,96644.23
2019-02-18T15:20:11.890Z,96638.33
2019-02-18T15:22:41.621Z,96633.59
2019-02-18T15:25:10.857Z,96636.54
2019-02-18T15:27:41.819Z,96635.89
2019-02-18T15:30:14.971Z,96641.06
2019-02-18T15:32:44.463Z,96634.41
2019-02-18T15:35:15.383Z,96638.25
2019-02-18T15:37:45.695Z,96642.53
2019-02-18T15:40:16.679Z,96637.48
2019-02-18T15:42:48.561Z,96627.53
2019-02-18T15:45:20.032Z,96630.91
2019-02-18T15:48:10.924Z,96633.27
2019-02-18T15:50:40.223Z,96626.95
2019-02-18T15:53:19.417Z,96622.67
2019-02-18T15:55:48.592Z,96618.18
2019-02-18T15:58:18.911Z,96621.20
2019-02-18T16:00:50.003Z,96617.48
2019-02-18T16:03:20.482Z,96614.34
2019-02-18T16:05:54.808Z,96610.29
2019-02-18T16:08:23.922Z,96609.89
2019-02-18T16:10:55.726Z,96619.25
2019-02-18T16:13:25.049Z,96614.35
2019-02-18T16:15:55.461Z,96619.34
2019-02-18T16:18:28.112Z,96614.73
2019-02-18T16:21:03.657Z,96617.93
2019-02-18T16:23:35.770Z,96621.30
2019-02-18T16:26:07.409Z,96620.02
2019-02-18T16:28:44.263Z,96620.88
2019-02-18T16:31:13.691Z,96614.19
2019-02-18T16:33:45.047Z,96622.05
2019-02-18T16:36:14.244Z,96626.77
2019-02-18T16:38:43.438Z,96628.24
2019-02-18T16:41:16.746Z,96627.25
2019-02-18T16:43:48.291Z,96626.69
2019-02-18T16:46:16.820Z,96628.10
2019-02-18T16:48:46.439Z,96629.92
2019-02-18T16:51:16.366Z,96626.00
2019-02-18T16:53:48.207Z,96629.70
2019-02-18T16:56:18.588Z,96635.86
2019-02-18T16:58:50.190Z,96629.92
2019-02-18T17:01:19.546Z,96628.06
2019-02-18T17:03:50.348Z,96627.98
2019-02-18T17:06:20.389Z,96631.81
2019-02-18T17:08:49.577Z,96633.17
2019-02-18T17:11:18.710Z,96636.11
2019-02-18T17:13:49.050Z,96637.64
2019-02-18T17:16:18.488Z,96633.90
2019-02-18T17:18:47.739Z,96627.55
2019-02-18T17:21:16.892Z,96626.84
2019-02-18T17:23:45.993Z,96626.42
2019-02-18T17:26:16.547Z,96623.95
2019-02-18T17:28:45.697Z,96626.13
2019-02-18T17:31:15.323Z,96628.48
2019-02-18T17:33:44.439Z,96629.61
2019-02-18T17:36:15.448Z,96630.86
2019-02-18T17:38:44.683Z,96627.52
2019-02-18T17:41:13.954Z,96623.28
2019-02-18T17:43:43.255Z,96623.65
2019-02-18T17:46:14.618Z,96628.13
2019-02-18T17:48:43.740Z,96630.66
2019-02-18T17:51:18.702Z,96626.98
2019-02-18T17:53:49.061Z,96628.00
2019-02-18T17:56:18.336Z,96639.22
2019-02-18T17:58:50.700Z,96641.11
2019-02-18T18:01:19.873Z,96642.20
2019-02-18T18:03:49.671Z,96636.52
2019-02-18T18:06:18.784Z,96640.23
2019-02-18T18:08:47.907Z,96643.05
2019-02-18T18:11:18.009Z,96643.56
2019-02-18T18:13:48.417Z,96650.41
2019-02-18T18:16:17.533Z,96646.23
2019-02-18T18:18:51.361Z,96641.23
2019-02-18T18:21:20.126Z,96650.55
2019-02-18T18:23:49.423Z,96650.00
2019-02-18T18:26:20.561Z,96654.72
2019-02-18T18:28:49.711Z,96652.05
2019-02-18T18:31:20.387Z,96650.20
2019-02-18T18:33:49.566Z,96645.94
2019-02-18T18:36:19.760Z,96642.78
2019-02-18T18:38:50.049Z,96645.07
2019-02-18T18:41:19.761Z,96642.88
2019-02-18T18:43:51.272Z,96644.23
2019-02-18T18:46:22.169Z,96648.65
2019-02-18T18:48:51.409Z,96649.48
2019-02-18T18:51:20.660Z,96650.50
2019-02-18T18:53:49.892Z,96651.11
2019-02-18T18:56:19.089Z,96649.11
2019-02-18T18:58:48.678Z,96644.87
2019-02-18T19:01:20.099Z,96642.05
2019-02-18T19:03:49.277Z,96645.87
2019-02-18T19:06:18.441Z,96647.26
2019-02-18T19:08:49.803Z,96648.72
2019-02-18T19:11:18.935Z,96643.41
2019-02-18T19:13:50.418Z,96644.81
2019-02-18T19:16:19.562Z,96651.81
2019-02-18T19:18:48.848Z,96657.49
2019-02-18T19:21:19.148Z,96655.52
2019-02-18T19:23:50.406Z,96653.78
2019-02-18T19:26:26.822Z,96654.68
2019-02-18T19:28:55.979Z,96647.13
2019-02-18T19:31:28.973Z,96656.70
2019-02-18T19:33:59.203Z,96645.30
2019-02-18T19:36:28.691Z,96643.56
2019-02-18T19:38:57.949Z,96647.61
2019-02-18T19:41:27.138Z,96650.08
2019-02-18T19:43:56.643Z,96650.52
2019-02-18T19:46:28.256Z,96663.41
2019-02-18T19:48:57.763Z,96663.80
2019-02-18T19:51:27.450Z,96662.69
2019-02-18T19:53:56.872Z,96670.59
2019-02-18T19:56:28.595Z,96667.46
2019-02-18T19:58:57.771Z,96665.68
2019-02-18T20:01:27.119Z,96670.52
2019-02-18T20:04:02.883Z,96670.95
2019-02-18T20:06:32.127Z,96674.34
2019-02-18T20:09:01.346Z,96669.66
2019-02-18T20:11:30.888Z,96678.73
2019-02-18T20:14:02.935Z,96669.50
2019-02-18T20:16:32.101Z,96671.38
2019-02-18T20:19:02.540Z,96674.09
2019-02-18T20:21:36.147Z,96675.27
2019-02-18T20:24:06.764Z,96673.95
2019-02-18T20:26:38.275Z,96672.74
2019-02-18T20:29:14.055Z,96664.55
2019-02-18T20:31:50.650Z,96661.69
2019-02-18T20:34:21.389Z,96659.27
2019-02-18T20:36:54.525Z,96664.55
2019-02-18T20:39:25.751Z,96675.34
2019-02-18T20:41:54.935Z,96675.29
2019-02-18T20:44:24.060Z,96675.84
2019-02-18T20:46:57.148Z,96679.58
2019-02-18T20:49:29.635Z,96673.62
2019-02-18T20:51:58.900Z,96673.48
2019-02-18T20:54:29.698Z,96668.75
2019-02-18T20:56:59.389Z,96669.98
2019-02-18T20:59:28.535Z,96673.05
2019-02-18T21:02:00.108Z,96673.41
2019-02-18T21:04:31.163Z,96672.92
2019-02-18T21:07:00.312Z,96677.41
2019-02-18T21:09:29.486Z,96676.01
2019-02-18T21:11:58.594Z,96681.84
2019-02-18T21:14:29.054Z,96679.22
2019-02-18T21:17:00.469Z,96679.52
2019-02-18T21:19:30.474Z,96685.77
2019-02-18T21:21:59.606Z,96676.34
2019-02-18T21:24:28.749Z,96680.97
2019-02-18T21:26:57.935Z,96686.72
2019-02-18T21:29:27.068Z,96685.23
2019-02-18T21:31:56.752Z,96691.30
2019-02-18T21:34:25.876Z,96688.83
2019-02-18T21:36:55.033Z,96685.90
2019-02-18T21:39:24.832Z,96682.38
2019-02-18T21:41:54.152Z,96685.52
2019-02-18T21:44:25.536Z,96682.14
2019-02-18T21:46:54.177Z,96680.63
2019-02-18T21:49:25.152Z,96680.03
2019-02-18T21:51:54.236Z,96684.53
2019-02-18T21:54:23.385Z,96682.45
2019-02-18T21:56:52.556Z,96681.86
2019-02-18T21:59:23.081Z,96677.47
2019-02-18T22:01:55.949Z,96689.50
2019-02-18T22:04:25.663Z,95696.02
2019-02-18T22:06:54.798Z,96699.81
2019-02-18T22:09:26.131Z,96692.05
2019-02-18T22:12:06.828Z,96685.85
2019-02-18T22:14:40.680Z,96694.86
2019-02-18T22:17:25.020Z,96688.58
2019-02-18T22:19:54.283Z,96697.41
2019-02-18T22:22:27.195Z,96691.69
2019-02-18T22:24:58.437Z,96698.83
2019-02-18T22:27:32.425Z,96699.25
2019-02-18T22:30:01.620Z,96699.36
2019-02-18T22:32:30.908Z,96698.97
2019-02-18T22:35:01.612Z,96693.01
2019-02-18T22:37:32.246Z,96701.21
2019-02-18T22:40:05.013Z,96695.42
2019-02-18T22:42:36.647Z,96697.48
2019-02-18T22:45:07.557Z,96700.32
2019-02-18T22:47:36.784Z,96699.16
2019-02-18T22:50:06.332Z,96701.31
2019-02-18T22:52:37.068Z,96703.16
2019-02-18T22:55:06.987Z,96703.39
2019-02-18T22:57:37.721Z,96702.96
2019-02-18T23:00:13.584Z,96711.05
2019-02-18T23:02:45.653Z,96708.89
2019-02-18T23:05:18.135Z,96725.81
2019-02-18T23:07:50.420Z,96725.81
2019-02-18T23:10:19.526Z,96725.86
2019-02-18T23:12:51.694Z,96715.97
2019-02-18T23:15:21.985Z,96721.37
2019-02-18T23:17:51.314Z,96720.62
2019-02-18T23:20:20.641Z,96726.20
2019-02-18T23:22:49.752Z,96727.64
2019-02-18T23:25:25.898Z,96733.64
2019-02-18T23:27:54.979Z,96729.36
2019-02-18T23:30:25.166Z,96728.21
2019-02-18T23:32:54.587Z,96724.37
2019-02-18T23:35:28.648Z,96724.17
2019-02-18T23:37:58.005Z,96723.73
2019-02-18T23:40:27.235Z,96722.73
2019-02-18T23:42:58.365Z,96724.51
2019-02-18T23:45:28.587Z,96722.30
2019-02-18T23:48:04.042Z,96723.06
2019-02-18T23:50:42.251Z,96725.65
2019-02-18T23:53:11.401Z,96722.06
2019-02-18T23:55:40.536Z,96724.97
2019-02-18T23:58:11.491Z,96726.66
